createdAt,value
2019-03-21T00:02:03.756Z,86.57
2019-03-21T00:04:34.930Z,101.57
2019-03-21T00:07:06.084Z,103.60
2019-03-21T00:09:38.265Z,100.70
2019-03-21T00:12:10.631Z,102.77
2019-03-21T00:15:14.219Z,93.53
2019-03-21T00:17:48.207Z,86.77
2019-03-21T00:20:19.300Z,95.77
2019-03-21T00:22:50.505Z,85.97
2019-03-21T00:25:23.135Z,87.83
2019-03-21T00:27:55.328Z,91.73
2019-03-21T00:30:26.493Z,80.83
2019-03-21T00:32:57.630Z,93.00
2019-03-21T00:35:28.725Z,93.73
2019-03-21T00:37:59.843Z,79.57
2019-03-21T00:40:33.265Z,92.77
2019-03-21T00:43:05.637Z,82.67
2019-03-21T00:45:37.101Z,91.57
2019-03-21T00:48:10.583Z,91.57
2019-03-21T00:50:41.805Z,94.20
2019-03-21T00:53:12.881Z,89.90
2019-03-21T00:55:44.688Z,90.70
2019-03-21T00:58:15.771Z,96.77
2019-03-21T01:00:49.457Z,111.00
2019-03-21T01:03:20.489Z,101.47
2019-03-21T01:05:51.548Z,107.10
2019-03-21T01:08:22.822Z,112.33
2019-03-21T01:10:54.056Z,108.13
2019-03-21T01:13:27.481Z,106.87
2019-03-21T01:15:58.534Z,105.37
2019-03-21T01:18:29.866Z,98.40
2019-03-21T01:21:00.970Z,93.57
2019-03-21T01:23:32.188Z,107.67
2019-03-21T01:26:03.449Z,100.47
2019-03-21T01:28:34.482Z,100.17
2019-03-21T01:31:05.600Z,97.10
2019-03-21T01:33:36.668Z,108.37
2019-03-21T01:36:07.937Z,102.60
2019-03-21T01:38:39.018Z,96.73
2019-03-21T01:41:10.988Z,97.33
2019-03-21T01:43:42.028Z,111.43
2019-03-21T01:46:13.384Z,99.40
2019-03-21T01:48:44.414Z,92.83
2019-03-21T01:51:15.452Z,103.20
2019-03-21T01:53:46.527Z,112.27
2019-03-21T01:56:17.744Z,101.73
2019-03-21T01:58:48.798Z,105.43
2019-03-21T02:01:20.168Z,100.77
2019-03-21T02:03:52.229Z,103.47
2019-03-21T02:06:23.352Z,100.63
2019-03-21T02:08:54.596Z,97.93
2019-03-21T02:11:25.789Z,103.00
2019-03-21T02:13:56.882Z,109.23
2019-03-21T02:16:28.067Z,108.73
2019-03-21T02:18:59.085Z,108.93
2019-03-21T02:21:30.127Z,120.50
2019-03-21T02:24:01.209Z,106.63
2019-03-21T02:26:32.310Z,121.50
2019-03-21T02:29:03.458Z,105.40
2019-03-21T02:31:34.517Z,116.33
2019-03-21T02:34:05.620Z,121.60
2019-03-21T02:36:36.725Z,121.27
2019-03-21T02:39:08.203Z,119.63
2019-03-21T02:41:39.353Z,126.67
2019-03-21T02:44:10.417Z,113.07
2019-03-21T02:46:41.490Z,123.10
2019-03-21T02:49:12.501Z,114.97
2019-03-21T02:51:43.514Z,117.87
2019-03-21T02:54:14.492Z,116.77
2019-03-21T02:56:46.897Z,106.90
2019-03-21T02:59:17.960Z,108.33
2019-03-21T03:01:49.188Z,108.47
2019-03-21T03:04:20.169Z,108.83
2019-03-21T03:06:51.367Z,117.00
2019-03-21T03:09:22.326Z,146.17
2019-03-21T03:11:53.464Z,174.43
2019-03-21T03:14:24.514Z,114.37
2019-03-21T03:16:55.572Z,161.30
2019-03-21T03:19:26.660Z,113.93
2019-03-21T03:21:57.688Z,102.87
2019-03-21T03:24:31.155Z,131.27
2019-03-21T03:27:02.374Z,108.97
2019-03-21T03:29:33.342Z,118.63
2019-03-21T03:32:04.564Z,128.47
2019-03-21T03:34:35.608Z,117.10
2019-03-21T03:37:06.885Z,117.33
2019-03-21T03:39:37.905Z,129.53
2019-03-21T03:42:09.265Z,114.40
2019-03-21T03:44:40.366Z,104.10
2019-03-21T03:47:11.490Z,111.87
2019-03-21T03:49:42.704Z,109.93
2019-03-21T03:52:13.699Z,116.70
2019-03-21T03:54:44.758Z,117.10
2019-03-21T03:57:16.369Z,109.77
2019-03-21T03:59:47.603Z,110.57
2019-03-21T04:02:18.712Z,108.27
2019-03-21T04:04:49.690Z,107.70
2019-03-21T04:07:20.728Z,101.73
2019-03-21T04:09:52.035Z,97.47
2019-03-21T04:12:23.244Z,109.47
2019-03-21T04:14:54.224Z,90.27
2019-03-21T04:17:25.268Z,97.50
2019-03-21T04:19:56.346Z,105.60
2019-03-21T04:22:27.356Z,102.07
2019-03-21T04:24:58.325Z,116.47
2019-03-21T04:27:29.508Z,110.07
2019-03-21T04:30:01.550Z,97.60
2019-03-21T04:32:32.707Z,96.20
2019-03-21T04:35:03.821Z,102.13
2019-03-21T04:37:34.867Z,96.73
2019-03-21T04:40:06.495Z,107.37
2019-03-21T04:42:37.608Z,89.57
2019-03-21T04:45:11.404Z,92.53
2019-03-21T04:47:42.440Z,97.83
2019-03-21T04:50:16.074Z,109.00
2019-03-21T04:52:48.516Z,123.20
2019-03-21T04:55:19.604Z,131.27
2019-03-21T04:57:50.875Z,127.93
2019-03-21T05:00:24.641Z,137.03
2019-03-21T05:02:57.501Z,129.70
2019-03-21T05:05:28.519Z,107.43
2019-03-21T05:07:59.832Z,123.07
2019-03-21T05:10:30.962Z,106.50
2019-03-21T05:13:02.933Z,95.23
2019-03-21T05:15:36.377Z,88.10
2019-03-21T05:18:11.554Z,85.87
2019-03-21T05:20:42.717Z,90.43
2019-03-21T05:23:13.800Z,87.57
2019-03-21T05:25:44.994Z,79.40
2019-03-21T05:28:16.157Z,105.80
2019-03-21T05:31:02.129Z,123.80
2019-03-21T05:33:33.114Z,148.03
2019-03-21T05:36:04.229Z,110.73
2019-03-21T05:38:35.499Z,127.70
2019-03-21T05:41:06.815Z,128.55
2019-03-21T05:43:44.441Z,122.97
2019-03-21T05:46:25.975Z,147.03
2019-03-21T05:48:48.087Z,144.83
2019-03-21T05:51:19.168Z,153.33
2019-03-21T05:53:50.163Z,132.07
2019-03-21T05:56:21.357Z,139.37
2019-03-21T05:58:52.888Z,128.50
2019-03-21T06:01:23.936Z,158.13
2019-03-21T06:03:55.299Z,168.13
2019-03-21T06:06:47.425Z,150.07
2019-03-21T06:09:19.908Z,154.23
2019-03-21T06:11:54.679Z,165.60
2019-03-21T06:14:26.099Z,174.70
2019-03-21T06:16:57.487Z,156.60
2019-03-21T06:19:43.654Z,169.73
2019-03-21T06:22:42.377Z,175.10
2019-03-21T06:25:52.945Z,141.60
2019-03-21T06:28:24.585Z,135.37
2019-03-21T06:30:55.750Z,151.07
2019-03-21T06:33:26.823Z,129.27
2019-03-21T06:35:59.061Z,132.20
2019-03-21T06:38:30.115Z,140.83
2019-03-21T06:41:01.200Z,139.17
2019-03-21T06:43:32.359Z,148.17
2019-03-21T06:46:03.557Z,141.90
2019-03-21T06:48:34.615Z,111.90
2019-03-21T06:51:05.611Z,110.07
2019-03-21T06:53:36.626Z,114.00
2019-03-21T06:56:09.454Z,106.07
2019-03-21T06:58:41.669Z,101.30
2019-03-21T07:01:12.955Z,104.87
2019-03-21T07:03:44.191Z,118.10
2019-03-21T07:06:15.514Z,118.65
2019-03-21T07:08:46.528Z,128.60
2019-03-21T07:11:17.581Z,98.00
2019-03-21T07:13:48.802Z,107.23
2019-03-21T07:16:20.128Z,107.83
2019-03-21T07:18:51.520Z,93.03
2019-03-21T07:21:22.626Z,85.80
2019-03-21T07:23:53.861Z,111.13
2019-03-21T07:26:24.870Z,79.70
2019-03-21T07:28:56.248Z,101.40
2019-03-21T07:31:27.322Z,156.47
2019-03-21T07:33:58.422Z,188.53
2019-03-21T07:36:29.483Z,95.73
2019-03-21T07:39:00.686Z,84.17
2019-03-21T07:41:33.713Z,83.13
2019-03-21T07:44:04.728Z,74.40
2019-03-21T07:46:35.859Z,100.60
2019-03-21T07:49:06.998Z,75.63
2019-03-21T07:51:38.105Z,73.80
2019-03-21T07:54:09.399Z,90.27
2019-03-21T07:56:41.141Z,70.50
2019-03-21T07:59:12.640Z,80.10
2019-03-21T08:01:43.783Z,72.60
2019-03-21T08:04:15.253Z,80.03
2019-03-21T08:06:46.555Z,74.83
2019-03-21T08:09:17.664Z,78.33
2019-03-21T08:11:48.785Z,79.63
2019-03-21T08:14:19.811Z,77.57
2019-03-21T08:16:50.873Z,78.93
2019-03-21T08:19:22.964Z,59.73
2019-03-21T08:21:54.012Z,55.17
2019-03-21T08:24:25.108Z,57.60
2019-03-21T08:26:56.478Z,54.93
2019-03-21T08:29:27.698Z,52.30
2019-03-21T08:31:58.893Z,44.87
2019-03-21T08:34:30.109Z,48.17
2019-03-21T08:37:01.172Z,57.90
2019-03-21T08:39:32.421Z,49.03
2019-03-21T08:42:03.644Z,52.00
2019-03-21T08:44:34.766Z,47.77
2019-03-21T08:47:05.996Z,49.47
2019-03-21T08:49:37.044Z,58.00
2019-03-21T08:52:08.253Z,60.60
2019-03-21T08:54:39.346Z,53.37
2019-03-21T08:57:10.464Z,56.47
2019-03-21T08:59:41.549Z,63.57
2019-03-21T09:02:12.687Z,57.20
2019-03-21T09:04:43.798Z,80.93
2019-03-21T09:07:14.879Z,84.80
2019-03-21T09:09:46.011Z,77.47
2019-03-21T09:12:17.790Z,69.93
2019-03-21T09:14:48.867Z,91.77
2019-03-21T09:17:19.861Z,61.60
2019-03-21T09:19:50.960Z,68.80
2019-03-21T09:22:21.977Z,69.50
2019-03-21T09:24:55.488Z,71.20
2019-03-21T09:27:27.630Z,59.37
2019-03-21T09:29:58.790Z,78.60
2019-03-21T09:32:29.748Z,68.43
2019-03-21T09:35:00.793Z,70.13
2019-03-21T09:37:31.944Z,63.07
2019-03-21T09:40:03.189Z,57.23
2019-03-21T09:42:34.437Z,60.90
2019-03-21T09:45:06.803Z,62.10
2019-03-21T09:47:38.008Z,67.30
2019-03-21T09:50:09.466Z,76.37
2019-03-21T09:52:40.639Z,59.20
2019-03-21T09:55:11.810Z,52.80
2019-03-21T09:57:42.879Z,60.20
2019-03-21T10:00:15.991Z,52.90
2019-03-21T10:02:46.963Z,49.70
2019-03-21T10:05:18.032Z,52.27
2019-03-21T10:07:48.991Z,56.73
2019-03-21T10:10:28.133Z,51.37
2019-03-21T10:13:00.569Z,54.93
2019-03-21T10:15:31.647Z,58.20
2019-03-21T10:18:02.787Z,52.90
2019-03-21T10:20:33.778Z,65.07
2019-03-21T10:23:04.804Z,67.57
2019-03-21T10:25:35.857Z,62.70
2019-03-21T10:28:06.872Z,58.43
2019-03-21T10:30:40.620Z,55.00
2019-03-21T10:33:13.192Z,50.30
2019-03-21T10:35:44.453Z,47.30
2019-03-21T10:38:15.732Z,46.67
2019-03-21T10:40:46.677Z,58.03
2019-03-21T10:43:17.689Z,56.37
2019-03-21T10:45:48.781Z,52.17
2019-03-21T10:48:19.876Z,50.93
2019-03-21T10:50:50.991Z,55.90
2019-03-21T10:53:22.134Z,41.97
2019-03-21T10:55:53.263Z,71.77
2019-03-21T10:58:24.461Z,47.50
2019-03-21T11:00:55.519Z,47.40
2019-03-21T11:03:26.684Z,39.07
2019-03-21T11:05:57.804Z,39.93
2019-03-21T11:08:29.086Z,45.07
2019-03-21T11:11:00.143Z,42.80
2019-03-21T11:13:31.226Z,47.80
2019-03-21T11:16:02.379Z,40.73
2019-03-21T11:18:36.283Z,45.00
2019-03-21T11:21:06.080Z,39.80
2019-03-21T11:23:37.117Z,35.40
2019-03-21T11:26:08.227Z,34.30
2019-03-21T11:28:39.206Z,44.60
2019-03-21T11:31:10.369Z,29.73
2019-03-21T11:33:42.532Z,37.00
2019-03-21T11:36:13.564Z,38.00
2019-03-21T11:38:44.661Z,30.90
2019-03-21T11:41:15.855Z,29.10
2019-03-21T11:43:47.987Z,36.77
2019-03-21T11:46:19.147Z,41.27
2019-03-21T11:48:50.346Z,30.87
2019-03-21T11:51:22.456Z,29.40
2019-03-21T11:53:53.546Z,31.23
2019-03-21T11:56:24.682Z,29.53
2019-03-21T11:58:55.733Z,41.50
2019-03-21T12:01:26.760Z,35.70
2019-03-21T12:03:57.710Z,31.47
2019-03-21T12:06:28.811Z,35.83
2019-03-21T12:08:59.911Z,31.20
2019-03-21T12:11:31.227Z,35.33
2019-03-21T12:14:02.211Z,39.17
2019-03-21T12:16:33.273Z,35.60
2019-03-21T12:19:04.261Z,35.03
2019-03-21T12:21:36.333Z,39.73
2019-03-21T12:24:07.377Z,32.60
2019-03-21T12:26:38.472Z,38.83
2019-03-21T12:29:09.511Z,42.83
2019-03-21T12:31:40.789Z,37.30
2019-03-21T12:34:11.827Z,53.20
2019-03-21T12:36:43.294Z,52.13
2019-03-21T12:39:14.497Z,45.10
2019-03-21T12:41:45.668Z,45.07
2019-03-21T12:44:16.611Z,48.57
2019-03-21T12:46:47.663Z,56.23
2019-03-21T12:49:18.766Z,38.93
2019-03-21T12:51:49.978Z,37.33
2019-03-21T12:54:21.086Z,40.83
2019-03-21T12:56:53.133Z,45.00
2019-03-21T12:59:24.449Z,38.17
2019-03-21T13:01:55.728Z,32.33
2019-03-21T13:04:26.899Z,47.83
2019-03-21T13:06:58.044Z,35.53
2019-03-21T13:09:29.296Z,35.80
2019-03-21T13:12:00.311Z,30.70
2019-03-21T13:14:31.326Z,37.90
2019-03-21T13:17:02.392Z,35.97
2019-03-21T13:19:33.488Z,35.30
2019-03-21T13:22:05.545Z,25.47
2019-03-21T13:24:36.678Z,42.53
2019-03-21T13:27:07.725Z,37.60
2019-03-21T13:29:38.914Z,41.97
2019-03-21T13:32:09.921Z,40.77
2019-03-21T13:34:40.989Z,38.60
2019-03-21T13:37:12.107Z,45.80
2019-03-21T13:39:43.559Z,35.07
2019-03-21T13:42:14.738Z,25.87
2019-03-21T13:44:45.977Z,39.77
2019-03-21T13:47:17.081Z,26.73
2019-03-21T13:49:48.350Z,27.93
2019-03-21T13:52:19.598Z,30.27
2019-03-21T13:54:51.203Z,32.63
2019-03-21T13:57:22.286Z,32.30
2019-03-21T13:59:53.449Z,35.33
2019-03-21T14:02:24.649Z,40.67
2019-03-21T14:04:55.679Z,32.47
2019-03-21T14:07:26.820Z,37.40
2019-03-21T14:09:58.642Z,31.63
2019-03-21T14:12:29.874Z,29.57
2019-03-21T14:15:01.104Z,30.43
2019-03-21T14:17:34.032Z,23.87
2019-03-21T14:20:06.544Z,24.20
2019-03-21T14:22:37.699Z,29.23
2019-03-21T14:25:09.030Z,30.53
2019-03-21T14:27:40.418Z,37.80
2019-03-21T14:30:15.521Z,26.40
2019-03-21T14:32:46.810Z,28.20
2019-03-21T14:35:21.021Z,42.80
2019-03-21T14:37:52.295Z,27.57
2019-03-21T14:40:25.196Z,32.07
2019-03-21T14:42:57.667Z,31.00
2019-03-21T14:45:29.157Z,30.80
2019-03-21T14:48:01.933Z,27.27
2019-03-21T14:50:36.023Z,31.10
2019-03-21T14:53:07.323Z,30.00
2019-03-21T14:55:47.131Z,36.97
2019-03-21T14:58:11.245Z,37.40
2019-03-21T15:00:42.432Z,33.23
2019-03-21T15:03:15.128Z,54.53
2019-03-21T15:05:46.149Z,42.77
2019-03-21T15:08:17.375Z,37.00
2019-03-21T15:10:48.467Z,35.33
2019-03-21T15:13:19.730Z,31.40
2019-03-21T15:15:50.979Z,33.10
2019-03-21T15:18:22.149Z,42.97
2019-03-21T15:20:54.795Z,33.53
2019-03-21T15:23:40.506Z,40.17
2019-03-21T15:26:07.639Z,33.60
2019-03-21T15:28:38.745Z,38.60
2019-03-21T15:31:10.033Z,31.13
2019-03-21T15:33:41.068Z,46.93
2019-03-21T15:36:12.295Z,33.43
2019-03-21T15:38:43.443Z,35.20
2019-03-21T15:41:14.618Z,45.47
2019-03-21T15:43:45.968Z,45.13
2019-03-21T15:46:17.618Z,37.17
2019-03-21T15:48:48.969Z,36.33
2019-03-21T15:51:20.414Z,36.03
2019-03-21T15:53:56.133Z,39.53
2019-03-21T15:56:25.317Z,38.60
2019-03-21T15:59:01.150Z,35.77
2019-03-21T16:01:32.246Z,35.70
2019-03-21T16:04:03.375Z,36.57
2019-03-21T16:06:34.591Z,50.03
2019-03-21T16:09:07.251Z,42.60
2019-03-21T16:11:38.478Z,34.33
2019-03-21T16:14:10.795Z,47.40
2019-03-21T16:16:42.046Z,36.23
2019-03-21T16:19:13.461Z,42.47
2019-03-21T16:21:44.558Z,31.80
2019-03-21T16:24:15.877Z,38.67
2019-03-21T16:26:55.326Z,38.23
2019-03-21T16:29:27.284Z,35.67
2019-03-21T16:31:58.533Z,39.37
2019-03-21T16:34:31.420Z,31.17
2019-03-21T16:37:02.817Z,46.40
2019-03-21T16:39:34.093Z,41.30
2019-03-21T16:42:05.233Z,40.63
2019-03-21T16:44:36.434Z,46.03
2019-03-21T16:47:07.500Z,31.53
2019-03-21T16:49:38.692Z,48.40
2019-03-21T16:52:09.995Z,38.43
2019-03-21T16:54:41.128Z,44.17
2019-03-21T16:57:12.399Z,48.17
2019-03-21T16:59:43.495Z,40.13
2019-03-21T17:02:14.693Z,50.13
2019-03-21T17:04:46.012Z,43.70
2019-03-21T17:07:17.109Z,53.90
2019-03-21T17:09:48.399Z,49.90
2019-03-21T17:12:19.420Z,45.00
2019-03-21T17:14:50.720Z,41.60
2019-03-21T17:17:21.765Z,39.60
2019-03-21T17:19:53.330Z,46.50
2019-03-21T17:22:24.676Z,42.97
2019-03-21T17:24:56.205Z,53.63
2019-03-21T17:27:27.352Z,38.60
2019-03-21T17:29:58.797Z,40.37
2019-03-21T17:32:30.376Z,45.17
2019-03-21T17:35:01.624Z,47.97
2019-03-21T17:37:32.794Z,55.80
2019-03-21T17:40:04.220Z,41.17
2019-03-21T17:42:35.389Z,46.67
2019-03-21T17:45:08.857Z,42.13
2019-03-21T17:47:40.128Z,47.07
2019-03-21T17:50:12.522Z,44.67
2019-03-21T17:52:43.878Z,46.80
2019-03-21T17:55:15.147Z,48.40
2019-03-21T17:57:46.403Z,48.57
2019-03-21T18:00:20.700Z,49.00
2019-03-21T18:02:51.853Z,50.40
2019-03-21T18:05:23.101Z,60.43
2019-03-21T18:07:54.280Z,55.00
2019-03-21T18:10:27.943Z,54.17
2019-03-21T18:12:59.242Z,48.00
2019-03-21T18:15:30.779Z,41.63
2019-03-21T18:18:02.130Z,59.07
2019-03-21T18:20:35.209Z,48.27
2019-03-21T18:23:06.496Z,53.90
2019-03-21T18:25:39.763Z,65.63
2019-03-21T18:28:11.037Z,62.10
2019-03-21T18:30:42.242Z,54.03
2019-03-21T18:33:13.474Z,62.97
2019-03-21T18:35:44.720Z,60.13
2019-03-21T18:38:15.866Z,63.33
2019-03-21T18:40:47.178Z,60.33
2019-03-21T18:43:19.561Z,59.03
2019-03-21T18:45:50.868Z,74.03
2019-03-21T18:48:22.260Z,67.20
2019-03-21T18:50:53.361Z,66.10
2019-03-21T18:53:24.728Z,56.67
2019-03-21T18:55:55.752Z,68.47
2019-03-21T18:58:26.851Z,70.10
2019-03-21T19:00:58.112Z,68.20
2019-03-21T19:03:29.180Z,69.87
2019-03-21T19:06:01.264Z,65.70
2019-03-21T19:08:32.373Z,69.60
2019-03-21T19:11:06.846Z,69.87
2019-03-21T19:13:40.107Z,78.03
2019-03-21T19:16:11.735Z,75.13
2019-03-21T19:18:42.893Z,73.07
2019-03-21T19:21:14.046Z,80.30
2019-03-21T19:23:45.116Z,75.00
2019-03-21T19:26:17.767Z,73.80
2019-03-21T19:28:48.868Z,74.20
2019-03-21T19:31:19.989Z,68.30
2019-03-21T19:33:51.117Z,82.77
2019-03-21T19:36:23.766Z,87.00
2019-03-21T19:38:54.852Z,96.87
2019-03-21T19:41:26.883Z,106.67
2019-03-21T19:43:58.043Z,88.30
2019-03-21T19:46:29.082Z,152.10
2019-03-21T19:49:00.199Z,275.23
2019-03-21T19:51:31.548Z,101.87
2019-03-21T19:54:02.769Z,96.90
2019-03-21T19:56:33.939Z,93.23
2019-03-21T19:59:05.154Z,93.13
2019-03-21T20:01:36.454Z,86.97
2019-03-21T20:04:07.809Z,85.53
2019-03-21T20:06:39.531Z,103.33
2019-03-21T20:09:10.634Z,87.63
2019-03-21T20:11:41.932Z,91.33
2019-03-21T20:14:13.082Z,88.13
2019-03-21T20:16:44.190Z,87.43
2019-03-21T20:19:15.359Z,99.60
2019-03-21T20:21:48.029Z,113.20
2019-03-21T20:24:19.583Z,112.93
2019-03-21T20:26:50.786Z,112.83
2019-03-21T20:29:22.035Z,128.03
2019-03-21T20:31:53.311Z,114.30
2019-03-21T20:34:24.400Z,113.00
2019-03-21T20:36:55.571Z,119.43
2019-03-21T20:39:27.664Z,117.90
2019-03-21T20:41:58.888Z,117.47
2019-03-21T20:44:30.052Z,116.77
2019-03-21T20:47:01.757Z,117.67
2019-03-21T20:49:33.102Z,126.40
2019-03-21T20:52:04.321Z,137.13
2019-03-21T20:54:35.514Z,117.30
2019-03-21T20:57:07.689Z,110.67
2019-03-21T20:59:38.865Z,116.03
2019-03-21T21:02:10.049Z,124.63
2019-03-21T21:04:41.161Z,108.47
2019-03-21T21:07:12.238Z,126.13
2019-03-21T21:09:43.552Z,123.60
2019-03-21T21:12:14.762Z,108.50
2019-03-21T21:14:45.871Z,108.63
2019-03-21T21:17:16.954Z,106.77
2019-03-21T21:19:48.243Z,114.63
2019-03-21T21:22:19.451Z,107.77
2019-03-21T21:24:50.792Z,96.57
2019-03-21T21:27:22.068Z,95.97
2019-03-21T21:29:53.346Z,114.00
2019-03-21T21:32:24.527Z,106.20
2019-03-21T21:34:55.602Z,109.13
2019-03-21T21:37:26.765Z,107.17
2019-03-21T21:39:58.159Z,142.47
2019-03-21T21:42:29.426Z,119.97
2019-03-21T21:45:00.439Z,110.87
2019-03-21T21:47:31.598Z,118.93
2019-03-21T21:50:02.818Z,105.47
2019-03-21T21:52:41.900Z,106.73
2019-03-21T21:55:10.587Z,119.83
2019-03-21T21:57:42.720Z,117.77
2019-03-21T22:00:15.483Z,124.77
2019-03-21T22:02:46.584Z,122.87
2019-03-21T22:05:17.585Z,115.03
2019-03-21T22:07:48.799Z,116.67
2019-03-21T22:10:19.892Z,109.73
2019-03-21T22:12:51.238Z,102.00
2019-03-21T22:15:22.743Z,117.40
2019-03-21T22:17:53.866Z,103.47
2019-03-21T22:20:27.542Z,109.30
2019-03-21T22:22:58.811Z,113.83
2019-03-21T22:25:30.033Z,122.47
2019-03-21T22:28:01.164Z,120.93
2019-03-21T22:30:32.198Z,128.13
2019-03-21T22:33:03.379Z,119.50
2019-03-21T22:35:34.471Z,113.40
2019-03-21T22:38:06.715Z,132.43
2019-03-21T22:40:37.760Z,131.00
2019-03-21T22:43:09.165Z,123.83
2019-03-21T22:45:40.177Z,124.77
2019-03-21T22:48:11.205Z,123.73
2019-03-21T22:50:42.310Z,138.87
2019-03-21T22:53:13.434Z,124.17
2019-03-21T22:55:45.615Z,136.77
2019-03-21T22:58:16.590Z,129.07
2019-03-21T23:00:49.180Z,135.37
2019-03-21T23:03:20.630Z,112.63
2019-03-21T23:05:51.751Z,119.50
2019-03-21T23:08:22.760Z,117.50
2019-03-21T23:10:53.970Z,118.77
2019-03-21T23:13:25.130Z,111.73
2019-03-21T23:15:56.301Z,118.47
2019-03-21T23:18:27.462Z,108.73
2019-03-21T23:20:59.532Z,115.00
2019-03-21T23:23:30.751Z,114.53
2019-03-21T23:26:02.883Z,124.40
2019-03-21T23:28:34.071Z,116.53
2019-03-21T23:31:05.261Z,123.73
2019-03-21T23:33:36.558Z,127.20
2019-03-21T23:36:07.696Z,128.63
2019-03-21T23:38:38.747Z,130.60
2019-03-21T23:41:10.848Z,137.40
2019-03-21T23:43:41.951Z,109.13
2019-03-21T23:46:12.968Z,119.63
2019-03-21T23:48:44.027Z,131.23
2019-03-21T23:51:15.304Z,118.87
2019-03-21T23:53:46.425Z,121.20
2019-03-21T23:56:17.621Z,130.10
2019-03-21T23:58:48.747Z,127.67
